Time;durP1;ratioP1;P1;durP2;ratioP2;P2;SDS_P1;SDS_P2;PMS_P1;PMS_P2;Temp;Humidity;BMP_temperature;BMP_pressure;BME280_temperature;BME280_humidity;BME280_pressure;Samples;Min_cycle;Max_cycle;Signal;HPM_P1;HPM_P2
2021/09/24 00:01:24;;;;;;;2.75;1.90;;;;;;;22.18;54.55;100845.59;1794544;79;21266;-54
2021/09/24 00:03:51;;;;;;;2.35;1.60;;;;;;;22.17;54.57;100848.94;1795025;79;21657;-53
2021/09/24 00:06:17;;;;;;;4.08;1.98;;;;;;;22.16;54.60;100856.17;1798890;78;21471;-53
2021/09/24 00:08:43;;;;;;;3.33;1.77;;;;;;;22.16;54.63;100852.02;1792934;79;21116;-53
2021/09/24 00:11:09;;;;;;;2.80;1.77;;;;;;;22.14;54.66;100859.30;1797696;78;21110;-55
2021/09/24 00:13:35;;;;;;;3.15;1.80;;;;;;;22.13;54.65;100845.75;1795981;78;21245;-54
2021/09/24 00:16:01;;;;;;;2.85;1.60;;;;;;;22.13;54.68;100850.73;1791141;78;20913;-53
2021/09/24 00:18:27;;;;;;;3.15;2.00;;;;;;;22.13;54.70;100849.34;1798418;79;20990;-54
2021/09/24 00:20:53;;;;;;;2.55;1.80;;;;;;;22.12;54.71;100852.44;1790974;78;21085;-54
2021/09/24 00:23:19;;;;;;;2.45;1.60;;;;;;;22.11;54.73;100855.77;1793660;78;20984;-53
2021/09/24 00:25:45;;;;;;;2.60;1.62;;;;;;;22.11;54.74;100859.11;1800224;78;21235;-53
2021/09/24 00:28:11;;;;;;;2.72;1.80;;;;;;;22.10;54.74;100857.50;1799099;78;21604;-52
2021/09/24 00:30:38;;;;;;;2.62;1.87;;;;;;;22.10;54.75;100858.89;1778054;79;21072;-52
2021/09/24 00:33:04;;;;;;;2.85;1.87;;;;;;;22.08;54.76;100856.43;1770748;80;21494;-54
2021/09/24 00:35:30;;;;;;;2.25;1.80;;;;;;;22.06;54.74;100853.76;1764104;80;20971;-56
2021/09/24 00:37:57;;;;;;;2.25;1.55;;;;;;;22.06;54.77;100853.76;1763139;80;21430;-52
2021/09/24 00:40:23;;;;;;;2.47;1.60;;;;;;;22.04;54.80;100861.00;1765604;80;20884;-54
2021/09/24 00:42:49;;;;;;;2.72;1.62;;;;;;;22.05;54.80;100861.81;1764025;79;20939;-52
2021/09/24 00:45:15;;;;;;;2.60;1.57;;;;;;;22.03;54.80;100859.36;1767534;80;21034;-53
2021/09/24 00:47:41;;;;;;;2.45;1.45;;;;;;;22.02;54.82;100862.48;1764731;79;21011;-54
2021/09/24 00:50:08;;;;;;;2.65;1.52;;;;;;;22.01;54.83;100859.45;1740262;80;21131;-52
2021/09/24 00:52:34;;;;;;;2.62;1.70;;;;;;;22.00;54.84;100857.81;1771289;80;21034;-54
2021/09/24 00:55:00;;;;;;;2.65;1.80;;;;;;;21.99;54.84;100844.53;1775310;80;21684;-54
2021/09/24 00:57:27;;;;;;;3.62;1.60;;;;;;;21.98;54.86;100845.66;1766113;80;21087;-54
2021/09/24 00:59:53;;;;;;;3.40;1.67;;;;;;;21.96;54.88;100838.27;1768336;80;21541;-54
2021/09/24 01:02:19;;;;;;;2.40;1.60;;;;;;;21.95;54.89;100836.63;1766659;80;21262;-54
2021/09/24 01:04:45;;;;;;;1.92;1.45;;;;;;;21.94;54.88;100839.75;1772364;80;20951;-54
2021/09/24 01:07:12;;;;;;;2.62;1.50;;;;;;;21.93;54.92;100833.39;1765579;80;21066;-54
2021/09/24 01:09:38;;;;;;;2.05;1.42;;;;;;;21.91;54.92;100828.70;1764998;79;22035;-52
2021/09/24 01:12:07;;;;;;;2.60;1.67;;;;;;;21.92;54.94;100830.90;1767715;80;21008;-53
2021/09/24 01:14:33;;;;;;;2.58;1.60;;;;;;;21.90;54.98;100829.83;1762910;80;21475;-53
2021/09/24 01:16:59;;;;;;;1.60;1.20;;;;;;;21.89;54.95;100836.53;1794387;78;21488;-52
2021/09/24 01:19:26;;;;;;;2.30;1.42;;;;;;;21.87;54.98;100822.18;1805505;78;21423;-54
2021/09/24 01:21:52;;;;;;;2.37;1.55;;;;;;;21.87;54.98;100818.03;1792102;78;21008;-54
2021/09/24 01:24:18;;;;;;;2.30;1.70;;;;;;;21.86;55.00;100824.13;1799552;78;21057;-53
2021/09/24 01:26:50;;;;;;;2.58;1.75;;;;;;;21.85;55.01;100816.17;1800726;77;22094;-53
2021/09/24 01:29:16;;;;;;;2.75;1.65;;;;;;;21.84;55.02;100804.84;1789535;78;21093;-53
2021/09/24 01:31:43;;;;;;;2.37;1.45;;;;;;;21.83;55.02;100804.02;1800763;78;21086;-53
2021/09/24 01:34:09;;;;;;;2.33;1.50;;;;;;;21.81;55.03;100810.44;1800646;78;21036;-54
2021/09/24 01:36:35;;;;;;;3.27;1.70;;;;;;;21.82;55.04;100808.48;1804048;78;21388;-52
2021/09/24 01:39:08;;;;;;;3.02;1.60;;;;;;;21.81;55.04;100809.66;1808589;78;21067;-55
2021/09/24 01:41:39;;;;;;;1.90;1.45;;;;;;;21.79;55.05;100814.13;1802035;78;21060;-54
2021/09/24 01:44:05;;;;;;;2.45;1.60;;;;;;;21.80;55.04;100806.63;1781534;78;20997;-54
2021/09/24 01:46:31;;;;;;;2.65;1.65;;;;;;;21.78;55.06;100807.52;1784390;79;20947;-55
2021/09/24 01:48:57;;;;;;;2.02;1.30;;;;;;;21.77;55.06;100803.92;1784354;80;21061;-53
2021/09/24 01:51:24;;;;;;;2.37;1.62;;;;;;;21.77;55.07;100808.64;1779831;80;21195;-53
2021/09/24 01:53:50;;;;;;;3.05;1.77;;;;;;;21.76;55.09;100798.16;1797260;78;21093;-54
2021/09/24 01:56:16;;;;;;;2.45;1.60;;;;;;;21.75;55.10;100804.84;1766848;80;21017;-51
2021/09/24 01:58:42;;;;;;;4.33;1.40;;;;;;;21.74;55.09;100799.05;1782480;79;20878;-53
2021/09/24 02:01:08;;;;;;;2.17;1.20;;;;;;;21.72;55.09;100788.88;1784963;79;21026;-52
2021/09/24 02:03:34;;;;;;;2.85;1.50;;;;;;;21.72;55.11;100788.88;1776224;79;21367;-54
2021/09/24 02:06:00;;;;;;;2.35;1.62;;;;;;;21.72;55.13;100782.52;1775971;79;21119;-52
2021/09/24 02:08:26;;;;;;;2.92;1.98;;;;;;;21.71;55.13;100778.94;1783603;79;20993;-53
2021/09/24 02:10:52;;;;;;;2.27;1.40;;;;;;;21.69;55.12;100781.20;1776541;79;21505;-54
2021/09/24 02:13:18;;;;;;;1.80;1.42;;;;;;;21.69;55.15;100777.61;1780061;79;21017;-53
2021/09/24 02:15:44;;;;;;;2.70;1.55;;;;;;;21.69;55.13;100769.30;1777916;78;21260;-52
2021/09/24 02:18:10;;;;;;;1.67;1.25;;;;;;;21.68;55.14;100772.67;1786638;79;21584;-54
2021/09/24 02:20:36;;;;;;;1.92;1.30;;;;;;;21.67;55.15;100774.38;1779849;79;20913;-53
2021/09/24 02:23:03;;;;;;;3.00;1.17;;;;;;;21.67;55.15;100761.34;1782973;79;21526;-53
2021/09/24 02:25:29;;;;;;;2.98;1.60;;;;;;;21.65;55.16;100753.92;1783247;79;21074;-53
2021/09/24 02:27:55;;;;;;;2.15;1.40;;;;;;;21.64;55.16;100746.75;1782211;79;21591;-53
2021/09/24 02:30:21;;;;;;;1.90;1.20;;;;;;;21.63;55.17;100753.45;1783508;79;21630;-54
2021/09/24 02:32:47;;;;;;;2.02;1.12;;;;;;;21.62;55.17;100751.00;1785577;79;21077;-53
2021/09/24 02:35:13;;;;;;;2.12;1.47;;;;;;;21.61;55.16;100748.80;1781166;79;21484;-55
2021/09/24 02:37:39;;;;;;;2.40;1.55;;;;;;;21.60;55.18;100740.83;1781561;79;21033;-54
2021/09/24 02:40:08;;;;;;;2.08;1.40;;;;;;;21.61;55.17;100745.20;1779849;79;21218;-53
2021/09/24 02:42:34;;;;;;;2.40;1.40;;;;;;;21.60;55.17;100738.06;1782091;80;20971;-54
2021/09/24 02:45:00;;;;;;;2.80;1.60;;;;;;;21.58;55.20;100727.30;1778058;79;21718;-53
2021/09/24 02:47:26;;;;;;;2.72;1.52;;;;;;;21.58;55.18;100727.30;1782520;79;22022;-53
2021/09/24 02:49:52;;;;;;;2.42;1.40;;;;;;;21.57;55.17;100727.63;1782737;79;20877;-55
2021/09/24 02:52:18;;;;;;;2.65;1.50;;;;;;;21.56;55.18;100716.30;1776748;79;22054;-53
2021/09/24 02:54:44;;;;;;;2.67;1.30;;;;;;;21.55;55.17;100722.42;1778384;79;20901;-53
2021/09/24 02:57:10;;;;;;;1.92;1.17;;;;;;;21.55;55.18;100729.91;1782295;78;21010;-52
2021/09/24 02:59:37;;;;;;;2.20;1.52;;;;;;;21.54;55.19;100718.59;1782129;79;21526;-53
2021/09/24 03:02:03;;;;;;;2.70;1.55;;;;;;;21.52;55.18;100710.60;1784524;78;21061;-52
2021/09/24 03:04:29;;;;;;;2.60;1.57;;;;;;;21.52;55.19;100706.45;1781416;80;21105;-54
2021/09/24 03:06:55;;;;;;;2.08;1.40;;;;;;;21.52;55.19;100698.71;1779880;79;21620;-51
2021/09/24 03:09:21;;;;;;;1.90;1.27;;;;;;;21.51;55.18;100693.77;1785087;79;20905;-54
2021/09/24 03:11:47;;;;;;;2.35;1.62;;;;;;;21.50;55.20;100689.37;1787235;79;21679;-53
2021/09/24 03:14:13;;;;;;;1.98;1.30;;;;;;;21.49;55.19;100691.88;1784075;80;21002;-54
2021/09/24 03:16:41;;;;;;;3.62;1.60;;;;;;;21.49;55.20;100687.73;1777445;79;21327;-51
2021/09/24 03:19:08;;;;;;;2.65;1.55;;;;;;;21.48;55.20;100683.90;1782574;79;21405;-54
2021/09/24 03:21:36;;;;;;;4.90;1.40;;;;;;;21.47;55.21;100688.65;1785346;79;21028;-54
2021/09/24 03:24:03;;;;;;;2.27;1.62;;;;;;;21.48;55.21;100686.66;1781802;80;21307;-52
2021/09/24 03:26:29;;;;;;;2.90;1.82;;;;;;;21.50;55.22;100678.86;1778220;79;21057;-53
2021/09/24 03:28:55;;;;;;;1.67;1.17;;;;;;;21.52;55.23;100674.61;1780404;78;21269;-53
2021/09/24 03:31:21;;;;;;;1.62;1.27;;;;;;;21.56;55.17;100673.38;1772186;79;20861;-54
2021/09/24 03:33:47;;;;;;;1.55;1.20;;;;;;;21.59;55.12;100676.34;1760788;79;21045;-53
2021/09/24 03:36:13;;;;;;;1.22;1.02;;;;;;;21.62;55.07;100667.37;1758716;79;20966;-52
2021/09/24 03:38:39;;;;;;;1.98;1.47;;;;;;;21.66;54.99;100661.42;1758167;80;20978;-53
2021/09/24 03:41:05;;;;;;;1.90;1.10;;;;;;;21.68;54.91;100650.84;1756186;80;21323;-53
2021/09/24 03:43:31;;;;;;;1.72;1.10;;;;;;;21.72;54.83;100649.05;1760483;80;21423;-53
2021/09/24 03:45:57;;;;;;;1.30;1.10;;;;;;;21.75;54.77;100641.45;1772551;78;21003;-54
2021/09/24 03:48:23;;;;;;;1.82;1.02;;;;;;;21.78;54.71;100644.94;1745761;80;20911;-52
2021/09/24 03:50:49;;;;;;;1.17;1.02;;;;;;;21.81;54.63;100644.27;1766224;79;21052;-54
2021/09/24 03:53:15;;;;;;;1.30;1.00;;;;;;;21.84;54.58;100645.02;1770083;79;21299;-54
2021/09/24 03:55:41;;;;;;;1.50;0.85;;;;;;;21.87;54.51;100638.81;1767811;79;21092;-53
2021/09/24 03:58:07;;;;;;;1.70;1.00;;;;;;;21.90;54.46;100636.54;1772409;80;21636;-52
2021/09/24 04:00:34;;;;;;;1.52;1.00;;;;;;;21.92;54.39;100641.16;1768849;80;21013;-53
2021/09/24 04:03:01;;;;;;;1.45;1.00;;;;;;;21.95;54.32;100643.30;1769434;79;21093;-53
2021/09/24 04:05:27;;;;;;;1.87;1.37;;;;;;;21.97;54.27;100643.22;1768348;80;21655;-53
2021/09/24 04:07:53;;;;;;;2.02;1.20;;;;;;;22.00;54.21;100634.24;1759858;79;20982;-53
2021/09/24 04:10:19;;;;;;;1.62;1.00;;;;;;;22.01;54.18;100633.11;1763819;79;21029;-54
2021/09/24 04:12:45;;;;;;;1.37;1.02;;;;;;;22.03;54.16;100647.42;1765103;79;21013;-53
2021/09/24 04:15:12;;;;;;;1.62;1.00;;;;;;;22.04;54.10;100650.44;1764265;80;21329;-54
2021/09/24 04:17:38;;;;;;;1.92;1.25;;;;;;;22.05;54.05;100645.15;1770162;79;21380;-55
2021/09/24 04:20:05;;;;;;;1.72;1.07;;;;;;;22.07;54.06;100651.72;1766598;79;21101;-56
2021/09/24 04:22:32;;;;;;;3.17;1.35;;;;;;;22.07;54.04;100660.85;1765745;79;21096;-54
2021/09/24 04:24:58;;;;;;;1.55;1.15;;;;;;;22.08;54.00;100669.98;1766090;79;21574;-54
2021/09/24 04:27:24;;;;;;;2.00;1.20;;;;;;;22.09;54.00;100667.45;1765616;79;21021;-55
2021/09/24 04:29:51;;;;;;;1.80;1.40;;;;;;;22.10;53.98;100664.94;1768382;79;21071;-54
2021/09/24 04:32:17;;;;;;;2.17;1.20;;;;;;;22.09;53.96;100648.88;1785389;79;21059;-55
2021/09/24 04:34:43;;;;;;;1.87;1.10;;;;;;;22.10;54.00;100646.92;1791919;79;21087;-54
2021/09/24 04:37:09;;;;;;;1.70;1.37;;;;;;;22.10;53.99;100658.83;1793700;78;21011;-54
2021/09/24 04:39:35;;;;;;;2.47;1.17;;;;;;;22.11;54.00;100655.45;1793481;79;20933;-55
2021/09/24 04:42:01;;;;;;;1.92;1.20;;;;;;;22.10;54.04;100643.59;1793286;79;21444;-55
2021/09/24 04:44:27;;;;;;;2.80;1.55;;;;;;;22.11;54.07;100654.07;1794225;78;21507;-55
2021/09/24 04:46:53;;;;;;;3.42;1.60;;;;;;;22.10;54.09;100653.86;1794136;79;21007;-54
2021/09/24 04:49:20;;;;;;;3.45;1.55;;;;;;;22.10;54.08;100661.59;1787805;79;22071;-53
2021/09/24 04:51:46;;;;;;;2.12;1.32;;;;;;;22.10;54.07;100656.63;1786221;79;20941;-57
2021/09/24 04:54:12;;;;;;;3.17;1.55;;;;;;;22.09;54.04;100661.92;1790083;78;21504;-55
2021/09/24 04:56:38;;;;;;;2.98;2.15;;;;;;;22.08;53.98;100658.90;1786785;79;20845;-56
2021/09/24 04:59:05;;;;;;;2.70;1.65;;;;;;;22.08;53.92;100651.97;1792642;79;21075;-54
2021/09/24 05:01:31;;;;;;;3.10;1.98;;;;;;;22.07;53.85;100651.72;1791780;79;21115;-54
2021/09/24 05:03:57;;;;;;;3.47;1.70;;;;;;;22.06;53.81;100648.73;1790175;79;21113;-54
2021/09/24 05:06:23;;;;;;;3.85;1.55;;;;;;;22.05;53.74;100633.25;1798250;78;21156;-53
2021/09/24 05:08:49;;;;;;;4.87;1.70;;;;;;;22.04;53.70;100639.92;1794698;78;21620;-55
2021/09/24 05:11:15;;;;;;;4.17;1.75;;;;;;;22.02;53.66;100645.00;1788226;79;20993;-55
2021/09/24 05:13:41;;;;;;;2.98;1.55;;;;;;;22.01;53.65;100651.11;1787001;79;21059;-55
2021/09/24 05:16:08;;;;;;;3.33;2.12;;;;;;;22.00;53.66;100643.12;1793984;79;21065;-55
2021/09/24 05:18:34;;;;;;;4.85;1.92;;;;;;;21.98;53.62;100628.20;1791790;78;21227;-55
2021/09/24 05:21:00;;;;;;;2.40;1.70;;;;;;;21.98;53.62;100630.19;1790748;79;20998;-53
2021/09/24 05:23:26;;;;;;;3.70;1.65;;;;;;;21.97;53.62;100636.87;1784486;78;21005;-55
2021/09/24 05:25:52;;;;;;;2.87;1.55;;;;;;;21.95;53.63;100637.19;1793397;78;20894;-55
2021/09/24 05:28:19;;;;;;;2.70;1.45;;;;;;;21.95;53.62;100637.75;1785193;78;20992;-53
2021/09/24 05:30:45;;;;;;;2.20;1.55;;;;;;;21.94;53.62;100637.53;1791273;79;22048;-53
2021/09/24 05:33:11;;;;;;;3.33;1.55;;;;;;;21.94;53.62;100646.63;1787782;79;20913;-56
2021/09/24 05:35:37;;;;;;;3.52;1.57;;;;;;;21.94;53.64;100652.77;1792256;79;21028;-56
2021/09/24 05:38:03;;;;;;;1.87;1.20;;;;;;;21.92;53.65;100644.78;1785591;79;21044;-55
2021/09/24 05:40:29;;;;;;;3.77;1.40;;;;;;;21.93;53.66;100645.59;1793295;79;21100;-56
2021/09/24 05:42:55;;;;;;;3.20;1.37;;;;;;;21.92;53.65;100642.02;1786900;79;21761;-54
2021/09/24 05:45:21;;;;;;;2.75;1.40;;;;;;;21.92;53.65;100646.70;1788943;79;21492;-55
2021/09/24 05:47:47;;;;;;;3.60;1.70;;;;;;;21.91;53.67;100646.45;1792377;79;21031;-55
2021/09/24 05:50:14;;;;;;;4.90;1.77;;;;;;;21.90;53.66;100660.87;1788759;78;21081;-56
2021/09/24 05:52:47;;;;;;;2.70;1.52;;;;;;;21.88;53.69;100659.83;1789909;78;21011;-55
2021/09/24 05:55:15;;;;;;;1.80;1.30;;;;;;;21.88;53.66;100665.38;1791271;79;21073;-55
2021/09/24 05:57:41;;;;;;;5.33;2.10;;;;;;;21.88;53.68;100666.76;1791377;78;21627;-55
2021/09/24 06:00:09;;;;;;;2.00;1.40;;;;;;;21.86;53.68;100675.95;1791295;78;21468;-53
2021/09/24 06:02:35;;;;;;;3.47;1.32;;;;;;;21.86;53.67;100679.29;1789838;79;21012;-55
2021/09/24 06:05:02;;;;;;;2.12;1.40;;;;;;;21.85;53.69;100681.24;1794178;78;21450;-54
2021/09/24 06:07:28;;;;;;;2.27;1.30;;;;;;;21.84;53.69;100685.17;1793993;78;21455;-54
2021/09/24 06:09:54;;;;;;;2.75;1.40;;;;;;;21.83;53.70;100679.39;1790377;78;21145;-53
2021/09/24 06:12:21;;;;;;;2.87;1.47;;;;;;;21.83;53.69;100676.63;1789388;79;21426;-55
2021/09/24 06:14:47;;;;;;;2.65;1.57;;;;;;;21.82;53.70;100676.38;1790214;79;21897;-54
2021/09/24 06:17:14;;;;;;;4.05;1.32;;;;;;;21.82;53.71;100670.83;1793405;79;21007;-55
2021/09/24 06:19:40;;;;;;;2.87;1.50;;;;;;;21.82;53.72;100663.91;1786980;79;22067;-54
2021/09/24 06:22:07;;;;;;;3.55;1.30;;;;;;;21.82;53.69;100661.14;1793845;78;20914;-54
2021/09/24 06:24:33;;;;;;;2.47;1.55;;;;;;;21.82;53.70;100658.94;1789056;79;20985;-54
2021/09/24 06:26:59;;;;;;;2.15;1.40;;;;;;;21.82;53.69;100670.83;1789588;79;21903;-54
2021/09/24 06:29:25;;;;;;;2.50;1.35;;;;;;;21.81;53.70;100670.58;1787453;79;21016;-53
2021/09/24 06:31:51;;;;;;;3.90;1.67;;;;;;;21.80;53.68;100661.23;1793854;78;22117;-53
2021/09/24 06:34:18;;;;;;;3.30;1.30;;;;;;;21.80;53.70;100668.16;1791429;78;20908;-52
2021/09/24 06:36:44;;;;;;;1.62;1.22;;;;;;;21.79;53.70;100675.65;1786258;79;21449;-54
2021/09/24 06:39:10;;;;;;;2.45;1.40;;;;;;;21.78;53.71;100674.59;1782879;78;21059;-54
2021/09/24 06:41:36;;;;;;;2.40;1.40;;;;;;;21.77;53.71;100668.23;1786631;78;21519;-55
2021/09/24 06:44:03;;;;;;;2.42;1.60;;;;;;;21.77;53.69;100669.61;1790242;78;22069;-55
2021/09/24 06:46:30;;;;;;;2.55;1.30;;;;;;;21.76;53.70;100663.86;1785335;78;21084;-54
2021/09/24 06:48:56;;;;;;;5.40;2.08;;;;;;;21.76;53.70;100662.47;1788126;78;21115;-54
2021/09/24 06:51:22;;;;;;;9.35;3.15;;;;;;;21.75;53.69;100664.98;1787386;78;20974;-56
2021/09/24 06:53:48;;;;;;;12.25;3.55;;;;;;;21.74;53.70;100666.69;1794116;78;21000;-54
2021/09/24 06:56:14;;;;;;;9.10;3.37;;;;;;;21.73;53.70;100663.67;1793205;78;21590;-55
2021/09/24 06:58:40;;;;;;;7.03;2.90;;;;;;;21.72;53.70;100666.22;1783249;79;21052;-57
2021/09/24 07:01:06;;;;;;;7.75;3.22;;;;;;;21.71;53.70;100663.20;1784225;80;20886;-55
2021/09/24 07:03:32;;;;;;;9.53;3.52;;;;;;;21.70;53.68;100661.00;1790434;79;20914;-54
2021/09/24 07:05:58;;;;;;;7.58;2.98;;;;;;;21.69;53.66;100655.78;1784515;79;21073;-54
2021/09/24 07:08:24;;;;;;;6.62;2.90;;;;;;;21.68;53.66;100655.56;1778396;79;21538;-55
2021/09/24 07:10:50;;;;;;;10.35;3.35;;;;;;;21.68;53.65;100648.08;1782616;79;20959;-56
2021/09/24 07:13:16;;;;;;;9.28;3.22;;;;;;;21.67;53.63;100645.62;1787683;79;21664;-55
2021/09/24 07:15:44;;;;;;;7.58;2.80;;;;;;;21.67;53.61;100653.36;1801504;78;21054;-55
2021/09/24 07:18:11;;;;;;;7.17;3.30;;;;;;;21.67;53.60;100653.36;1806185;78;45198;-54
2021/09/24 07:20:38;;;;;;;6.90;3.15;;;;;;;21.67;53.56;100659.47;1768771;80;21080;-55
2021/09/24 07:23:04;;;;;;;9.23;2.77;;;;;;;21.66;53.54;100649.52;1804862;78;21073;-57
2021/09/24 07:25:30;;;;;;;6.75;2.90;;;;;;;21.66;53.53;100653.67;1799266;78;21001;-54
2021/09/24 07:27:57;;;;;;;5.80;2.60;;;;;;;21.66;53.50;100656.45;1802920;78;21011;-55
2021/09/24 07:30:23;;;;;;;9.23;3.08;;;;;;;21.66;53.48;100660.60;1775477;80;21044;-54
2021/09/24 07:32:49;;;;;;;7.85;3.25;;;;;;;21.65;53.46;100650.66;1775915;79;21797;-53
2021/09/24 07:35:15;;;;;;;4.95;2.33;;;;;;;21.64;53.43;100645.69;1784224;79;21075;-55
2021/09/24 07:37:41;;;;;;;6.22;2.17;;;;;;;21.64;53.41;100647.67;1781522;79;21119;-53
2021/09/24 07:40:09;;;;;;;5.97;2.50;;;;;;;21.64;53.40;100639.37;1775176;78;21534;-53
2021/09/24 07:42:35;;;;;;;5.03;2.75;;;;;;;21.62;53.39;100643.02;1802554;78;21025;-52
2021/09/24 07:45:02;;;;;;;4.20;2.22;;;;;;;21.62;53.36;100633.33;1764234;80;22046;-55
2021/09/24 07:47:28;;;;;;;4.50;2.40;;;;;;;21.61;53.35;100628.93;1785632;79;21064;-54
2021/09/24 07:49:54;;;;;;;4.67;2.08;;;;;;;21.60;53.31;100621.19;1783617;79;21007;-54
2021/09/24 07:52:20;;;;;;;7.00;2.40;;;;;;;21.60;53.30;100610.72;1782723;79;21415;-52
2021/09/24 07:54:46;;;;;;;4.33;2.22;;;;;;;21.61;53.26;100615.91;1780335;79;20930;-55
2021/09/24 07:57:13;;;;;;;5.42;2.10;;;;;;;21.61;53.26;100617.85;1774398;79;21236;-52
2021/09/24 07:59:41;;;;;;;5.20;1.98;;;;;;;21.61;53.25;100615.08;1782122;79;21001;-53
2021/09/24 08:02:08;;;;;;;5.85;2.10;;;;;;;21.61;53.22;100611.75;1778061;79;21144;-54
2021/09/24 08:04:34;;;;;;;6.25;2.22;;;;;;;21.62;53.20;100602.31;1779063;79;21013;-54
2021/09/24 08:07:01;;;;;;;5.87;2.42;;;;;;;21.61;53.18;100596.52;1776758;79;21001;-53
2021/09/24 08:09:27;;;;;;;4.37;2.22;;;;;;;21.61;53.15;100590.98;1775926;79;21356;-55
2021/09/24 08:11:53;;;;;;;7.03;2.30;;;;;;;21.61;53.12;100584.06;1778779;79;20963;-55
2021/09/24 08:14:19;;;;;;;5.85;2.02;;;;;;;21.62;53.10;100576.58;1780094;79;21044;-55
2021/09/24 08:16:45;;;;;;;4.17;1.85;;;;;;;21.62;53.08;100571.85;1781546;79;20996;-55
2021/09/24 08:19:11;;;;;;;4.47;2.15;;;;;;;21.64;53.06;100575.69;1778245;80;21055;-55
2021/09/24 08:21:37;;;;;;;3.22;1.77;;;;;;;21.64;53.02;100575.69;1808084;78;21487;-55
2021/09/24 08:24:04;;;;;;;4.33;1.90;;;;;;;21.63;53.00;100580.41;1804677;78;20873;-56
2021/09/24 08:26:31;;;;;;;3.27;2.00;;;;;;;21.63;52.98;100585.13;1810740;78;20974;-56
2021/09/24 08:28:57;;;;;;;4.62;2.20;;;;;;;21.63;52.95;100583.18;1799423;77;21014;-55
2021/09/24 08:31:23;;;;;;;4.00;1.80;;;;;;;21.63;52.91;100575.44;1762286;80;20984;-56
2021/09/24 08:33:49;;;;;;;4.22;1.95;;;;;;;21.62;52.89;100578.78;1785034;79;21269;-54
2021/09/24 08:36:16;;;;;;;4.67;2.05;;;;;;;21.62;52.87;100568.27;1782324;79;20881;-55
2021/09/24 08:38:42;;;;;;;5.15;2.02;;;;;;;21.62;52.86;100556.63;1781522;79;21012;-54
2021/09/24 08:41:08;;;;;;;4.72;2.05;;;;;;;21.61;52.82;100557.77;1785679;80;21036;-54
2021/09/24 08:43:35;;;;;;;5.20;2.17;;;;;;;21.62;52.81;100557.20;1773087;79;20916;-57
2021/09/24 08:46:01;;;;;;;5.10;1.98;;;;;;;21.60;52.78;100544.27;1781195;79;21066;-56
2021/09/24 08:48:28;;;;;;;3.47;1.75;;;;;;;21.61;52.76;100530.65;1782944;79;21056;-56
2021/09/24 08:50:55;;;;;;;3.77;1.80;;;;;;;21.61;52.75;100531.46;1784925;80;21062;-54
2021/09/24 08:53:22;;;;;;;4.03;1.90;;;;;;;21.62;52.72;100539.20;1776165;79;20991;-56
2021/09/24 08:55:48;;;;;;;2.95;1.75;;;;;;;21.62;52.68;100533.66;1780038;79;21130;-55
2021/09/24 08:58:15;;;;;;;4.85;2.08;;;;;;;21.64;52.67;100530.01;1780681;79;21467;-54
2021/09/24 09:00:43;;;;;;;3.75;2.15;;;;;;;21.63;52.65;100534.73;1774727;80;21600;-53
2021/09/24 09:03:18;;;;;;;3.08;1.75;;;;;;;21.64;52.63;100523.88;1782667;79;21076;-56
2021/09/24 09:05:51;;;;;;;2.30;1.60;;;;;;;21.65;52.59;100525.50;1789034;80;21066;-55
2021/09/24 09:08:27;;;;;;;3.87;2.08;;;;;;;21.66;52.53;100524.37;1781414;79;21028;-54
2021/09/24 09:11:02;;;;;;;3.72;2.00;;;;;;;21.66;52.50;100520.78;1781438;80;21111;-53
2021/09/24 09:13:39;;;;;;;5.47;1.98;;;;;;;21.66;52.48;100516.62;1784590;79;21186;-55
2021/09/24 09:16:14;;;;;;;4.60;2.30;;;;;;;21.67;52.43;100521.03;1784155;79;20999;-53
2021/09/24 09:18:43;;;;;;;6.25;1.90;;;;;;;21.66;52.42;100511.91;1789364;79;21058;-53
2021/09/24 09:21:12;;;;;;;3.40;2.08;;;;;;;21.67;52.36;100516.88;1783388;79;21017;-55
2021/09/24 09:23:43;;;;;;;2.87;1.80;;;;;;;21.68;52.33;100512.41;1786071;79;21232;-55
2021/09/24 09:26:10;;;;;;;3.87;2.20;;;;;;;21.67;52.29;100510.77;1778876;79;20995;-56
2021/09/24 09:28:43;;;;;;;3.72;1.70;;;;;;;21.68;52.24;100503.28;1780619;79;21038;-56
2021/09/24 09:31:26;;;;;;;2.65;1.72;;;;;;;21.67;52.22;100496.92;1783595;79;21070;-56
2021/09/24 09:33:54;;;;;;;2.67;1.70;;;;;;;21.68;52.19;100494.41;1779402;79;21197;-58
2021/09/24 09:36:26;;;;;;;2.52;1.82;;;;;;;21.69;52.16;100500.73;1778040;79;21245;-53
2021/09/24 09:38:53;;;;;;;3.92;1.77;;;;;;;21.69;52.13;100486.89;1780143;79;20932;-54
2021/09/24 09:41:21;;;;;;;2.67;1.60;;;;;;;21.69;52.09;100484.93;1778493;79;21045;-56
2021/09/24 09:43:54;;;;;;;3.92;2.05;;;;;;;21.70;52.06;100479.64;1784999;79;21432;-55
2021/09/24 09:46:25;;;;;;;3.98;1.90;;;;;;;21.71;52.04;100474.92;1782924;79;21455;-54
2021/09/24 09:49:07;;;;;;;5.17;2.00;;;;;;;21.71;52.01;100457.73;1781131;79;21642;-54
2021/09/24 09:51:37;;;;;;;2.33;1.57;;;;;;;21.71;51.97;100433.39;1779358;79;21005;-56
2021/09/24 09:54:05;;;;;;;3.42;2.00;;;;;;;21.72;51.94;100426.71;1779911;80;21381;-56
2021/09/24 09:56:39;;;;;;;3.12;1.52;;;;;;;21.72;51.91;100419.22;1776157;79;21101;-53
2021/09/24 09:59:26;;;;;;;2.52;1.62;;;;;;;21.71;51.89;100417.59;1780205;79;20983;-55
2021/09/24 10:02:17;;;;;;;2.58;1.50;;;;;;;21.72;51.88;100420.60;1778670;80;23207;-54
2021/09/24 10:04:46;;;;;;;3.15;1.72;;;;;;;21.73;51.84;100430.52;1773113;79;21012;-52
2021/09/24 10:07:18;;;;;;;2.52;1.60;;;;;;;21.73;51.79;100420.82;1774599;80;21121;-54
2021/09/24 10:09:46;;;;;;;3.25;1.60;;;;;;;21.73;51.76;100424.16;1776879;79;21090;-52
2021/09/24 10:12:22;;;;;;;2.70;1.67;;;;;;;21.72;51.75;100421.98;1778025;79;21086;-54
2021/09/24 10:14:51;;;;;;;3.75;1.60;;;;;;;21.72;51.72;100428.91;1775147;79;21983;-55
2021/09/24 10:17:19;;;;;;;2.80;1.87;;;;;;;21.71;51.71;100403.75;1792264;78;21010;-54
2021/09/24 10:19:45;;;;;;;2.90;1.70;;;;;;;21.70;51.70;100395.19;1787426;78;21034;-55
2021/09/24 10:22:12;;;;;;;1.95;1.55;;;;;;;21.70;51.67;100396.58;1791199;78;22243;-53
2021/09/24 10:24:40;;;;;;;3.42;1.70;;;;;;;21.70;51.66;100393.81;1790934;80;21070;-55
2021/09/24 10:27:07;;;;;;;1.85;1.40;;;;;;;21.70;51.65;100383.30;1758650;80;21990;-55
2021/09/24 10:29:36;;;;;;;3.58;1.60;;;;;;;21.71;51.63;100371.91;1780099;79;21429;-52
2021/09/24 10:32:17;;;;;;;3.05;1.40;;;;;;;21.72;51.62;100381.84;1774122;80;21579;-54
2021/09/24 10:35:08;;;;;;;2.08;1.47;;;;;;;21.72;51.58;100372.72;1781721;78;20997;-56
2021/09/24 10:37:38;;;;;;;2.70;1.67;;;;;;;21.72;51.57;100374.10;1811171;78;21093;-55
2021/09/24 10:40:26;;;;;;;2.17;1.53;;;;;;;21.73;51.55;100377.90;1763770;80;22056;-54
2021/09/24 10:42:52;;;;;;;2.27;1.40;;;;;;;21.73;51.51;100377.09;1779117;78;21139;-55
2021/09/24 10:45:39;;;;;;;3.22;1.70;;;;;;;21.74;51.49;100371.80;1795947;79;21761;-55
2021/09/24 10:48:25;;;;;;;3.17;1.90;;;;;;;21.75;51.46;100362.34;1798933;78;21013;-54
2021/09/24 10:51:02;;;;;;;2.50;1.85;;;;;;;21.75;51.46;100363.16;1789812;79;21006;-54
2021/09/24 10:53:40;;;;;;;2.30;1.50;;;;;;;21.75;51.42;100360.39;1791312;79;21078;-55
2021/09/24 10:56:12;;;;;;;2.83;1.55;;;;;;;21.77;51.40;100351.73;1794632;78;20932;-55
2021/09/24 10:58:40;;;;;;;3.10;2.05;;;;;;;21.78;51.37;100341.72;1797488;78;21027;-55
2021/09/24 11:01:16;;;;;;;4.12;1.60;;;;;;;21.79;51.32;100332.84;1792838;78;21016;-56
2021/09/24 11:03:57;;;;;;;1.90;1.57;;;;;;;21.80;51.29;100330.31;1786902;78;21461;-54
2021/09/24 11:06:41;;;;;;;4.60;2.20;;;;;;;21.82;51.25;100332.16;1795895;78;21010;-53
2021/09/24 11:09:13;;;;;;;2.67;1.85;;;;;;;21.83;51.22;100324.09;1793226;79;21025;-54
2021/09/24 11:11:45;;;;;;;3.50;1.80;;;;;;;21.84;51.20;100323.77;1797505;78;21064;-55
2021/09/24 11:14:25;;;;;;;2.65;1.45;;;;;;;21.84;51.16;100315.45;1793590;79;20942;-55
2021/09/24 11:16:52;;;;;;;3.47;1.70;;;;;;;21.85;51.15;100317.66;1788373;79;21075;-56
2021/09/24 11:19:45;;;;;;;2.55;1.50;;;;;;;21.86;51.13;100295.72;1803417;79;21432;-54
2021/09/24 11:22:20;;;;;;;2.17;1.60;;;;;;;21.86;51.08;100274.37;1793460;78;21352;-55
2021/09/24 11:25:00;;;;;;;2.47;1.55;;;;;;;21.86;51.06;100279.09;1796506;78;21477;-55
2021/09/24 11:27:36;;;;;;;2.80;1.62;;;;;;;21.87;51.05;100273.23;1796319;78;21005;-56